Time;durP1;ratioP1;P1;durP2;ratioP2;P2;SDS_P1;SDS_P2;PMS_P1;PMS_P2;Temp;Humidity;BMP_temperature;BMP_pressure;BME280_temperature;BME280_humidity;BME280_pressure;Samples;Min_cycle;Max_cycle;Signal;HPM_P1;HPM_P2
2023/11/29 00:01:17;;;;;;;0.10;0.10;;;5.80;66.70;;;;;;5034807;28;20041;-71
2023/11/29 00:03:43;;;;;;;0.00;0.00;;;5.80;66.00;;;;;;5035043;28;20037;-73
2023/11/29 00:06:09;;;;;;;0.43;0.20;;;5.80;66.40;;;;;;5035147;28;20489;-73
2023/11/29 00:08:35;;;;;;;0.00;0.00;;;5.80;66.70;;;;;;5039739;28;20025;-71
2023/11/29 00:11:01;;;;;;;0.77;0.60;;;5.70;67.20;;;;;;5054461;28;20367;-70
2023/11/29 00:13:27;;;;;;;0.20;0.20;;;5.70;67.10;;;;;;5053195;28;20032;-73
2023/11/29 00:15:53;;;;;;;0.08;0.08;;;5.70;67.30;;;;;;5053627;28;20231;-71
2023/11/29 00:18:19;;;;;;;0.10;0.10;;;5.70;66.30;;;;;;5053591;28;20547;-70
2023/11/29 00:20:45;;;;;;;0.17;0.17;;;5.70;65.80;;;;;;5052590;28;20036;-74
2023/11/29 00:23:11;;;;;;;0.45;0.40;;;5.70;66.20;;;;;;5053496;28;20029;-73
2023/11/29 00:25:37;;;;;;;3.47;1.77;;;5.70;66.20;;;;;;5036419;28;20444;-73
2023/11/29 00:28:03;;;;;;;6.75;2.40;;;5.70;66.30;;;;;;5053533;28;20037;-73
2023/11/29 00:30:29;;;;;;;1.05;0.88;;;5.80;66.70;;;;;;5054053;28;20041;-70
2023/11/29 00:32:56;;;;;;;1.77;0.63;;;5.80;66.80;;;;;;5053548;28;20032;-73
2023/11/29 00:35:23;;;;;;;2.35;1.42;;;5.70;66.50;;;;;;5054562;28;20479;-73
2023/11/29 00:37:49;;;;;;;2.45;1.33;;;5.70;66.90;;;;;;5054755;28;20033;-73
2023/11/29 00:40:15;;;;;;;2.13;1.35;;;5.70;68.20;;;;;;5052603;28;20087;-73
2023/11/29 00:42:43;;;;;;;;;;;5.70;68.20;;;;;;5054847;28;20025;-73
2023/11/29 00:45:09;;;;;;;2.70;1.52;;;5.70;67.90;;;;;;5053186;28;19970;-71
2023/11/29 00:47:35;;;;;;;2.85;1.45;;;5.70;67.90;;;;;;5036503;28;20492;-73
2023/11/29 00:50:02;;;;;;;;;;;5.70;68.00;;;;;;5052782;28;20037;-73
2023/11/29 00:52:28;;;;;;;1.67;0.90;;;5.70;68.00;;;;;;5053762;28;19917;-70
2023/11/29 00:54:54;;;;;;;2.05;1.58;;;5.70;67.90;;;;;;5054159;28;20059;-71
2023/11/29 00:57:20;;;;;;;0.73;0.40;;;5.70;68.00;;;;;;5053277;28;20047;-70
2023/11/29 00:59:47;;;;;;;1.02;0.73;;;5.70;68.20;;;;;;5053919;28;20044;-73
2023/11/29 01:02:13;;;;;;;2.10;1.35;;;5.60;67.60;;;;;;5053643;28;20056;-73
2023/11/29 01:04:39;;;;;;;1.15;0.85;;;5.70;68.30;;;;;;5052679;28;20029;-73
2023/11/29 01:07:05;;;;;;;0.32;0.22;;;5.60;68.40;;;;;;5052709;28;20498;-71
2023/11/29 01:09:31;;;;;;;1.83;0.50;;;5.60;68.70;;;;;;5036394;28;20032;-73
2023/11/29 01:11:57;;;;;;;2.30;1.02;;;5.50;69.10;;;;;;5052112;28;20033;-71
2023/11/29 01:14:23;;;;;;;1.10;0.60;;;5.50;69.30;;;;;;5052497;28;20047;-73
2023/11/29 01:16:49;;;;;;;1.98;1.55;;;5.50;69.20;;;;;;5052414;28;20030;-73
2023/11/29 01:19:15;;;;;;;1.05;0.95;;;5.50;68.90;;;;;;5052312;28;20482;-71
2023/11/29 01:21:41;;;;;;;0.10;0.10;;;5.40;68.90;;;;;;5052979;28;20103;-71
2023/11/29 01:24:07;;;;;;;1.45;1.23;;;5.40;68.80;;;;;;5053573;28;20032;-72
2023/11/29 01:26:34;;;;;;;;;;;5.40;68.80;;;;;;5052820;28;20045;-73
2023/11/29 01:29:00;;;;;;;2.45;0.82;;;5.40;68.40;;;;;;5053422;28;19912;-71
2023/11/29 01:31:26;;;;;;;0.20;0.13;;;5.40;68.60;;;;;;5051439;28;20068;-73
2023/11/29 01:33:53;;;;;;;0.10;0.10;;;5.40;68.90;;;;;;5053446;28;20521;-73
2023/11/29 01:36:20;;;;;;;0.08;0.08;;;5.30;68.70;;;;;;5052240;28;20037;-71
2023/11/29 01:38:46;;;;;;;;;;;5.40;69.00;;;;;;5053798;28;20512;-71
2023/11/29 01:41:12;;;;;;;0.30;0.30;;;5.40;68.80;;;;;;5052582;28;19921;-73
2023/11/29 01:43:38;;;;;;;;;;;5.30;68.20;;;;;;5052016;28;20029;-73
2023/11/29 01:46:04;;;;;;;0.50;0.25;;;5.30;68.80;;;;;;5051820;28;20016;-73
2023/11/29 01:48:31;;;;;;;1.23;0.80;;;5.30;68.90;;;;;;5053174;28;20036;-71
2023/11/29 01:50:58;;;;;;;0.65;0.38;;;5.20;69.10;;;;;;5051114;28;20094;-71
2023/11/29 01:53:31;;;;;;;0.20;0.20;;;5.20;69.10;;;;;;5035126;28;20040;-73
2023/11/29 01:55:57;;;;;;;0.10;0.10;;;5.10;69.50;;;;;;5051965;28;20119;-73
2023/11/29 01:58:26;;;;;;;0.75;0.38;;;5.00;69.20;;;;;;5051789;28;20136;-73
2023/11/29 02:00:53;;;;;;;0.10;0.10;;;5.00;70.00;;;;;;5050374;28;20033;-73
2023/11/29 02:03:20;;;;;;;0.20;0.20;;;5.00;70.20;;;;;;5051744;28;20029;-72
2023/11/29 02:05:47;;;;;;;0.88;0.40;;;5.00;70.20;;;;;;5051393;28;20094;-73
2023/11/29 02:08:13;;;;;;;0.60;0.20;;;4.90;70.10;;;;;;5053462;28;20039;-71
2023/11/29 02:10:41;;;;;;;0.50;0.35;;;5.00;70.10;;;;;;5050831;28;20447;-71
2023/11/29 02:13:07;;;;;;;3.20;0.45;;;4.90;70.10;;;;;;5051347;28;20033;-70
2023/11/29 02:15:34;;;;;;;0.25;0.20;;;5.00;70.10;;;;;;5034628;28;20390;-71
2023/11/29 02:18:00;;;;;;;0.30;0.30;;;5.00;70.10;;;;;;5052954;28;20040;-73
2023/11/29 02:20:26;;;;;;;0.95;0.47;;;5.00;69.50;;;;;;5050852;28;20040;-73
2023/11/29 02:23:19;;;;;;;0.35;0.30;;;5.00;70.20;;;;;;5052623;28;20061;-71
2023/11/29 02:25:45;;;;;;;1.33;0.32;;;5.00;70.00;;;;;;5050993;28;20025;-70
2023/11/29 02:28:11;;;;;;;0.10;0.10;;;5.00;70.20;;;;;;5051356;28;20033;-71
2023/11/29 02:30:37;;;;;;;0.40;0.30;;;5.00;70.30;;;;;;5051975;28;20029;-71
2023/11/29 02:33:03;;;;;;;0.20;0.20;;;5.00;70.30;;;;;;5052437;28;20118;-73
2023/11/29 02:35:29;;;;;;;0.52;0.30;;;4.90;70.50;;;;;;5051314;28;20448;-71
2023/11/29 02:37:55;;;;;;;0.57;0.30;;;4.90;70.70;;;;;;5052790;28;20037;-71
2023/11/29 02:40:22;;;;;;;0.82;0.82;;;4.80;70.70;;;;;;5051823;28;20045;-73
2023/11/29 02:42:48;;;;;;;0.65;0.30;;;4.80;71.00;;;;;;5052300;28;20372;-73
2023/11/29 02:45:14;;;;;;;0.20;0.20;;;4.70;71.10;;;;;;5050932;28;20060;-71
2023/11/29 02:47:40;;;;;;;;;;;4.70;71.30;;;;;;5053514;28;20060;-73
2023/11/29 02:50:07;;;;;;;0.43;0.22;;;4.60;71.20;;;;;;5050411;28;20393;-71
2023/11/29 02:52:33;;;;;;;3.63;0.93;;;4.50;71.40;;;;;;5050863;28;20067;-71
2023/11/29 02:54:59;;;;;;;1.45;0.85;;;4.50;71.90;;;;;;5050967;28;20028;-73
2023/11/29 02:57:25;;;;;;;1.73;0.70;;;4.40;72.00;;;;;;5052716;28;20382;-70
2023/11/29 02:59:51;;;;;;;1.80;1.52;;;4.40;72.00;;;;;;5052051;28;20041;-73
2023/11/29 03:02:17;;;;;;;;;;;4.40;72.10;;;;;;5052509;28;20041;-73
2023/11/29 03:04:43;;;;;;;2.47;1.42;;;4.30;72.10;;;;;;5050771;28;20346;-73
2023/11/29 03:07:10;;;;;;;0.60;0.30;;;4.30;72.10;;;;;;5051055;28;20120;-73
2023/11/29 03:09:35;;;;;;;;;;;4.30;72.00;;;;;;5051044;28;20033;-70
2023/11/29 03:12:01;;;;;;;1.77;0.77;;;4.30;72.00;;;;;;5052630;28;19955;-73
2023/11/29 03:14:28;;;;;;;2.58;1.65;;;4.20;72.10;;;;;;5054578;28;20033;-71
2023/11/29 03:16:55;;;;;;;2.35;0.90;;;4.20;72.20;;;;;;5056166;28;20612;-71
2023/11/29 03:19:21;;;;;;;0.82;0.63;;;4.20;72.50;;;;;;5054575;28;20033;-70
2023/11/29 03:21:47;;;;;;;0.82;0.38;;;4.20;72.90;;;;;;5037071;28;20110;-70
2023/11/29 03:24:13;;;;;;;2.22;1.33;;;4.20;72.80;;;;;;5055754;28;20064;-73
2023/11/29 03:26:58;;;;;;;1.85;1.00;;;4.20;72.60;;;;;;5037885;28;20041;-73
2023/11/29 03:29:24;;;;;;;3.47;1.77;;;4.30;72.60;;;;;;5054516;28;20265;-70
2023/11/29 03:31:50;;;;;;;;;;;4.30;73.00;;;;;;5055595;28;20421;-73
2023/11/29 03:34:16;;;;;;;1.55;0.90;;;4.30;73.10;;;;;;5055566;28;19913;-71
2023/11/29 03:36:43;;;;;;;3.10;1.67;;;4.30;73.00;;;;;;5054507;28;20571;-71
2023/11/29 03:39:09;;;;;;;0.40;0.40;;;4.30;73.30;;;;;;5055500;28;20125;-71
2023/11/29 03:41:35;;;;;;;;;;;4.30;73.80;;;;;;5055541;28;21022;-73
2023/11/29 03:44:01;;;;;;;8.80;4.68;;;4.30;73.40;;;;;;5054080;28;19943;-70
2023/11/29 03:46:27;;;;;;;3.88;1.90;;;4.30;74.20;;;;;;5055499;28;20042;-71
2023/11/29 03:48:53;;;;;;;5.05;1.83;;;4.40;74.10;;;;;;5055404;28;20040;-71
2023/11/29 03:51:19;;;;;;;0.65;0.43;;;4.40;74.00;;;;;;5053557;28;20040;-70
2023/11/29 03:53:45;;;;;;;5.30;2.30;;;4.50;74.20;;;;;;5053720;28;20033;-70
2023/11/29 03:56:11;;;;;;;0.65;0.60;;;4.50;74.30;;;;;;5055505;28;20037;-73
2023/11/29 03:58:37;;;;;;;1.40;1.13;;;4.50;74.20;;;;;;5054045;28;20035;-71
2023/11/29 04:01:03;;;;;;;1.80;0.80;;;4.60;74.20;;;;;;5054815;28;20084;-71
2023/11/29 04:03:29;;;;;;;4.53;1.83;;;4.60;74.00;;;;;;5054933;28;20444;-74
2023/11/29 04:05:55;;;;;;;1.25;1.05;;;4.70;74.10;;;;;;5053895;28;20052;-71
2023/11/29 04:08:21;;;;;;;1.92;1.20;;;4.70;74.10;;;;;;5053948;28;20032;-73
2023/11/29 04:10:47;;;;;;;2.30;0.95;;;4.60;73.90;;;;;;5054500;28;20547;-73
2023/11/29 04:13:13;;;;;;;2.58;1.67;;;4.60;73.90;;;;;;5053659;28;20378;-71
2023/11/29 04:15:39;;;;;;;2.40;1.58;;;4.60;73.60;;;;;;5053589;28;20029;-73
2023/11/29 04:18:05;;;;;;;4.97;3.00;;;4.60;73.70;;;;;;5054942;28;20044;-71
2023/11/29 04:20:31;;;;;;;4.22;2.35;;;4.60;73.90;;;;;;5035918;28;20075;-71
2023/11/29 04:22:57;;;;;;;4.53;2.58;;;4.60;73.80;;;;;;5054523;28;20096;-71
2023/11/29 04:25:23;;;;;;;7.00;3.05;;;4.70;73.90;;;;;;5053934;28;20041;-73
2023/11/29 04:27:49;;;;;;;4.07;1.65;;;4.70;73.60;;;;;;5055241;28;20045;-71
2023/11/29 04:30:15;;;;;;;5.05;1.65;;;4.70;73.50;;;;;;5052555;28;20072;-73
2023/11/29 04:32:41;;;;;;;3.78;1.35;;;4.60;73.10;;;;;;5053452;28;20041;-71
2023/11/29 04:35:08;;;;;;;2.78;0.95;;;4.60;72.80;;;;;;5054521;28;20072;-71
2023/11/29 04:37:34;;;;;;;1.88;1.35;;;4.50;72.60;;;;;;5054702;28;20060;-73
2023/11/29 04:40:00;;;;;;;2.22;1.58;;;4.40;72.30;;;;;;5054550;28;20545;-72
2023/11/29 04:42:26;;;;;;;1.77;0.63;;;4.40;72.10;;;;;;5052337;28;20099;-71
2023/11/29 04:44:52;;;;;;;1.58;0.93;;;4.40;71.80;;;;;;5054678;28;20037;-72
2023/11/29 04:47:18;;;;;;;2.90;1.45;;;4.30;71.70;;;;;;5052964;28;20045;-73
2023/11/29 04:49:44;;;;;;;;;;;4.30;71.70;;;;;;5054564;28;20041;-70
2023/11/29 04:52:10;;;;;;;2.70;1.10;;;4.30;71.70;;;;;;5054212;28;19971;-70
2023/11/29 04:54:36;;;;;;;1.98;0.85;;;4.20;71.20;;;;;;5052995;28;20029;-71
2023/11/29 04:57:03;;;;;;;3.25;1.33;;;4.20;71.30;;;;;;5053099;28;20044;-73
2023/11/29 04:59:29;;;;;;;;;;;4.10;71.40;;;;;;5053606;28;20033;-71
2023/11/29 05:01:55;;;;;;;1.88;1.08;;;4.10;71.20;;;;;;5051991;28;19963;-71
2023/11/29 05:04:21;;;;;;;2.63;1.33;;;4.10;71.00;;;;;;5052658;28;20025;-73
2023/11/29 05:06:47;;;;;;;1.05;0.90;;;4.10;71.00;;;;;;5054172;28;20064;-71
2023/11/29 05:09:14;;;;;;;1.20;0.70;;;4.00;71.20;;;;;;5052605;28;20021;-73
2023/11/29 05:11:41;;;;;;;2.83;1.65;;;4.00;71.40;;;;;;5053326;28;20086;-73
2023/11/29 05:14:07;;;;;;;3.88;2.05;;;3.90;71.70;;;;;;5052273;28;20021;-71
2023/11/29 05:16:33;;;;;;;6.20;2.00;;;3.90;72.40;;;;;;5052616;28;20052;-73
2023/11/29 05:19:00;;;;;;;2.85;1.65;;;3.90;72.60;;;;;;5053744;28;20108;-72
2023/11/29 05:21:27;;;;;;;2.03;0.93;;;3.90;72.70;;;;;;5052682;28;20069;-73
2023/11/29 05:23:53;;;;;;;4.93;2.20;;;3.90;72.80;;;;;;5053667;28;20033;-73
2023/11/29 05:26:19;;;;;;;6.90;1.65;;;3.90;72.90;;;;;;5052338;28;20120;-73
2023/11/29 05:28:45;;;;;;;2.35;1.50;;;4.00;73.90;;;;;;5053304;28;20037;-73
2023/11/29 05:31:13;;;;;;;3.25;1.58;;;3.90;72.90;;;;;;5034919;28;20044;-72
2023/11/29 05:33:39;;;;;;;3.00;1.38;;;4.00;72.70;;;;;;5052171;28;20028;-73
2023/11/29 05:36:05;;;;;;;1.40;0.65;;;4.00;72.50;;;;;;5052191;28;20079;-71
2023/11/29 05:38:32;;;;;;;1.58;1.27;;;4.00;71.70;;;;;;5053070;28;20029;-73
2023/11/29 05:40:58;;;;;;;2.40;1.20;;;4.00;72.10;;;;;;5051404;28;20033;-73
2023/11/29 05:43:24;;;;;;;1.30;0.85;;;4.10;72.00;;;;;;5052039;28;20087;-71
2023/11/29 05:45:50;;;;;;;1.85;1.13;;;4.10;71.80;;;;;;5053069;28;20041;-71
2023/11/29 05:48:16;;;;;;;2.85;1.73;;;4.10;71.80;;;;;;5053163;28;20033;-73
2023/11/29 05:50:42;;;;;;;1.55;1.05;;;4.10;71.60;;;;;;5052370;28;20359;-70
2023/11/29 05:53:08;;;;;;;2.65;1.08;;;4.00;71.40;;;;;;5035253;28;20418;-73
2023/11/29 05:55:34;;;;;;;3.00;2.15;;;4.00;71.20;;;;;;5052756;28;20037;-73
2023/11/29 05:58:03;;;;;;;2.38;1.38;;;4.00;71.10;;;;;;5052062;28;20094;-71
2023/11/29 06:00:30;;;;;;;4.50;2.20;;;4.00;70.70;;;;;;5050993;28;20111;-73
2023/11/29 06:02:56;;;;;;;0.93;0.63;;;4.00;70.90;;;;;;5051442;28;20128;-72
2023/11/29 06:05:22;;;;;;;2.25;1.17;;;4.00;71.00;;;;;;5050365;28;20108;-73
2023/11/29 06:07:48;;;;;;;4.28;2.42;;;3.90;71.20;;;;;;5018691;28;20364;-70
2023/11/29 06:10:14;;;;;;;1.88;1.13;;;3.90;71.30;;;;;;5012534;28;20034;-71
2023/11/29 06:12:40;;;;;;;5.07;3.13;;;3.90;71.40;;;;;;5013442;28;20041;-70
2023/11/29 06:15:08;;;;;;;10.18;2.83;;;3.80;71.50;;;;;;5044824;28;20037;-71
2023/11/29 06:17:36;;;;;;;5.72;3.65;;;3.70;71.50;;;;;;5044468;28;20096;-73
2023/11/29 06:20:11;;;;;;;7.22;4.25;;;3.60;71.40;;;;;;5044720;28;20030;-71
2023/11/29 06:22:37;;;;;;;4.90;2.83;;;3.50;71.50;;;;;;5032055;28;20403;-70
2023/11/29 06:27:48;;;;;;;4.03;2.45;;;3.30;71.80;;;;;;5031902;28;20111;-73
2023/11/29 06:30:16;;;;;;;4.85;2.75;;;3.30;72.00;;;;;;5029132;28;20083;-71
2023/11/29 06:32:42;;;;;;;3.88;1.58;;;3.30;72.00;;;;;;5013118;28;20109;-73
2023/11/29 06:35:12;;;;;;;3.92;1.15;;;3.30;71.80;;;;;;5011681;28;20547;-73
2023/11/29 06:37:38;;;;;;;3.60;2.08;;;3.30;71.60;;;;;;5011650;28;20491;-71
2023/11/29 06:40:10;;;;;;;4.03;2.55;;;3.30;71.30;;;;;;5011196;28;20061;-73
2023/11/29 06:42:38;;;;;;;5.22;2.28;;;3.40;71.20;;;;;;5011314;28;20040;-71
2023/11/29 06:45:04;;;;;;;8.25;3.97;;;3.40;70.90;;;;;;5012596;28;20045;-73
2023/11/29 06:47:30;;;;;;;1.90;1.30;;;3.40;70.70;;;;;;5012365;28;20387;-71
2023/11/29 06:49:56;;;;;;;7.28;1.13;;;3.50;70.70;;;;;;5012695;28;20034;-73
2023/11/29 06:52:22;;;;;;;2.83;2.25;;;3.50;70.20;;;;;;5010802;28;20033;-72
2023/11/29 06:54:48;;;;;;;7.57;1.48;;;3.60;69.90;;;;;;5011082;28;20033;-73
2023/11/29 06:57:16;;;;;;;2.15;1.40;;;3.60;69.60;;;;;;5012809;28;20046;-73
2023/11/29 06:59:42;;;;;;;4.05;2.53;;;3.70;69.40;;;;;;5011143;28;20034;-71
2023/11/29 07:02:08;;;;;;;4.65;3.17;;;3.70;69.20;;;;;;5012480;28;20038;-71
2023/11/29 07:04:34;;;;;;;4.13;2.45;;;3.80;68.80;;;;;;5011460;28;20030;-73
2023/11/29 07:07:00;;;;;;;4.45;1.45;;;3.80;68.30;;;;;;5012668;28;20103;-71
2023/11/29 07:09:27;;;;;;;6.82;1.77;;;3.90;68.20;;;;;;5011155;28;20038;-73
2023/11/29 07:11:53;;;;;;;2.95;1.65;;;3.90;67.50;;;;;;5012212;28;20048;-73
2023/11/29 07:14:19;;;;;;;4.80;2.03;;;4.00;67.70;;;;;;5010949;28;20065;-73
2023/11/29 07:16:45;;;;;;;2.67;1.38;;;4.10;67.80;;;;;;5012707;28;20038;-73
2023/11/29 07:19:11;;;;;;;3.60;1.83;;;4.10;67.20;;;;;;5017283;28;20041;-71
2023/11/29 07:21:37;;;;;;;3.40;1.25;;;4.10;67.00;;;;;;5029896;28;20060;-70
2023/11/29 07:24:05;;;;;;;3.67;1.88;;;4.20;66.50;;;;;;5030504;28;20045;-72
2023/11/29 07:26:31;;;;;;;4.07;2.08;;;4.40;65.90;;;;;;5030817;28;20087;-71
2023/11/29 07:28:57;;;;;;;1.42;0.93;;;4.60;65.30;;;;;;5032038;28;20029;-71
2023/11/29 07:31:24;;;;;;;1.85;1.25;;;4.70;64.20;;;;;;5011918;28;20461;-71
2023/11/29 07:33:51;;;;;;;2.60;1.08;;;4.80;63.40;;;;;;5031775;28;20025;-70
2023/11/29 07:36:17;;;;;;;1.20;0.80;;;4.90;62.60;;;;;;5014526;28;20068;-70
2023/11/29 07:38:45;;;;;;;3.33;1.90;;;4.80;62.60;;;;;;5031819;28;20091;-71
2023/11/29 07:41:11;;;;;;;1.05;0.68;;;4.60;62.90;;;;;;5029814;28;20061;-73
2023/11/29 07:43:37;;;;;;;1.80;1.48;;;4.60;62.50;;;;;;5030279;28;20025;-73
2023/11/29 07:46:04;;;;;;;1.25;0.70;;;4.60;62.80;;;;;;5014177;28;20076;-71
2023/11/29 07:48:32;;;;;;;3.40;1.52;;;4.50;62.20;;;;;;5014149;28;20056;-71
2023/11/29 07:50:59;;;;;;;2.17;1.30;;;4.50;62.30;;;;;;5029854;28;20394;-71
2023/11/29 07:53:25;;;;;;;4.00;1.55;;;4.40;61.70;;;;;;5030432;28;20065;-71
2023/11/29 07:55:51;;;;;;;;;;;4.40;61.30;;;;;;5032297;28;20029;-70
2023/11/29 07:58:17;;;;;;;2.42;1.58;;;4.40;61.60;;;;;;5013985;28;19995;-73
2023/11/29 08:00:43;;;;;;;1.73;0.95;;;4.30;61.70;;;;;;5016370;28;20030;-73
2023/11/29 08:03:10;;;;;;;2.38;0.73;;;4.30;61.50;;;;;;5035314;28;20037;-73
2023/11/29 08:05:38;;;;;;;2.22;0.85;;;4.30;61.20;;;;;;5033791;28;20037;-73
2023/11/29 08:08:04;;;;;;;1.38;0.88;;;4.30;61.20;;;;;;5017509;28;20494;-71
2023/11/29 08:10:31;;;;;;;;;;;4.30;60.60;;;;;;5017211;28;20034;-71
2023/11/29 08:12:58;;;;;;;1.83;1.23;;;4.30;61.00;;;;;;5035412;28;19917;-71
2023/11/29 08:15:24;;;;;;;2.67;1.40;;;4.30;60.70;;;;;;5033835;28;20045;-71
2023/11/29 08:17:50;;;;;;;3.80;1.50;;;4.30;60.50;;;;;;5017018;28;20055;-70
2023/11/29 08:20:16;;;;;;;4.07;2.67;;;4.40;60.70;;;;;;5016560;28;20033;-73
2023/11/29 08:22:44;;;;;;;2.00;1.17;;;4.40;60.50;;;;;;5034711;28;20064;-71
2023/11/29 08:25:10;;;;;;;3.08;1.42;;;4.40;60.30;;;;;;5034737;28;20399;-72
2023/11/29 08:27:36;;;;;;;3.80;2.08;;;4.40;60.20;;;;;;5033825;28;20061;-73
2023/11/29 08:30:03;;;;;;;3.65;1.70;;;4.40;59.90;;;;;;5034677;28;20095;-73
2023/11/29 08:32:29;;;;;;;2.13;0.98;;;4.40;59.50;;;;;;5034529;28;20133;-71
2023/11/29 08:34:55;;;;;;;2.60;1.15;;;4.50;60.20;;;;;;5033813;28;20030;-73
2023/11/29 08:37:21;;;;;;;2.88;1.35;;;4.50;59.60;;;;;;5033716;28;20045;-71
2023/11/29 08:39:47;;;;;;;3.20;1.35;;;4.60;59.30;;;;;;5033315;28;20030;-72
2023/11/29 08:42:13;;;;;;;2.30;1.02;;;4.70;59.40;;;;;;5032334;28;20045;-73
2023/11/29 08:44:39;;;;;;;4.28;2.25;;;4.80;59.30;;;;;;5034337;28;20449;-71
2023/11/29 08:47:05;;;;;;;3.25;1.08;;;6.40;55.20;;;;;;5034705;28;20107;-73
2023/11/29 08:49:31;;;;;;;3.00;1.92;;;8.50;50.70;;;;;;5034264;28;20029;-71
2023/11/29 08:51:57;;;;;;;1.75;0.93;;;10.40;45.00;;;;;;5033972;28;20037;-73
2023/11/29 08:54:23;;;;;;;0.88;0.70;;;10.10;43.70;;;;;;5033020;28;20038;-71
2023/11/29 08:56:49;;;;;;;1.15;0.73;;;9.20;45.60;;;;;;5034562;28;20042;-71
2023/11/29 08:59:17;;;;;;;0.32;0.32;;;9.10;45.80;;;;;;5032939;28;20029;-71
2023/11/29 09:01:43;;;;;;;0.80;0.32;;;9.30;46.00;;;;;;5033959;28;20049;-71
2023/11/29 09:04:09;;;;;;;0.73;0.70;;;9.40;45.40;;;;;;5016423;28;20483;-71
2023/11/29 09:06:35;;;;;;;1.02;0.98;;;9.80;45.10;;;;;;5034183;28;20072;-74
2023/11/29 09:09:01;;;;;;;1.40;0.88;;;10.10;44.20;;;;;;5032627;28;20060;-73
2023/11/29 09:11:27;;;;;;;0.30;0.20;;;9.90;44.80;;;;;;5033051;28;20046;-71
2023/11/29 09:13:54;;;;;;;0.63;0.47;;;9.90;44.10;;;;;;5032616;28;20044;-71
2023/11/29 09:16:20;;;;;;;1.67;0.50;;;10.10;43.90;;;;;;5032706;28;20037;-73
2023/11/29 09:18:47;;;;;;;1.80;0.98;;;10.60;42.40;;;;;;5032575;28;20083;-73
2023/11/29 09:21:14;;;;;;;1.85;1.25;;;10.20;42.80;;;;;;5015235;28;20304;-73
2023/11/29 09:23:40;;;;;;;;;;;10.00;42.20;;;;;;5033031;28;20036;-73
2023/11/29 09:26:06;;;;;;;0.82;0.52;;;10.20;42.90;;;;;;5065497;28;20138;-71
2023/11/29 09:28:32;;;;;;;1.08;0.85;;;10.20;43.40;;;;;;5033728;28;20034;-71
2023/11/29 09:31:01;;;;;;;0.73;0.45;;;10.50;43.50;;;;;;5031619;28;20445;-73
2023/11/29 09:33:29;;;;;;;0.80;0.65;;;11.10;41.70;;;;;;5033329;28;20044;-71
2023/11/29 09:35:55;;;;;;;0.30;0.30;;;10.80;39.50;;;;;;5031057;28;20517;-71
2023/11/29 09:38:21;;;;;;;0.82;0.57;;;10.40;41.00;;;;;;5032296;28;20037;-72
2023/11/29 09:40:48;;;;;;;2.92;0.65;;;10.20;41.30;;;;;;5031565;28;20104;-71
2023/11/29 09:43:15;;;;;;;0.10;0.10;;;10.70;41.30;;;;;;5033042;28;20041;-71
2023/11/29 09:45:43;;;;;;;1.25;1.00;;;11.70;38.60;;;;;;5031762;28;20099;-73
2023/11/29 09:48:09;;;;;;;0.20;0.20;;;11.90;39.20;;;;;;5032235;28;20478;-73
2023/11/29 09:50:35;;;;;;;;;;;11.60;39.20;;;;;;5031889;28;20108;-71
2023/11/29 09:53:01;;;;;;;0.43;0.40;;;11.20;39.40;;;;;;5048380;28;19953;-74
2023/11/29 09:55:27;;;;;;;0.80;0.68;;;11.60;37.20;;;;;;5031783;28;20074;-73
2023/11/29 09:57:55;;;;;;;0.63;0.35;;;11.60;36.90;;;;;;5032146;28;20037;-71
2023/11/29 10:00:24;;;;;;;0.30;0.30;;;12.40;34.40;;;;;;5032476;28;20044;-73
2023/11/29 10:02:51;;;;;;;0.43;0.30;;;11.60;36.00;;;;;;5031873;28;20026;-73
2023/11/29 10:05:17;;;;;;;1.75;1.08;;;11.00;38.70;;;;;;5031723;28;20379;-73
2023/11/29 10:07:45;;;;;;;;;;;11.50;38.60;;;;;;5033942;28;20140;-73
2023/11/29 10:10:13;;;;;;;0.65;0.30;;;11.50;35.90;;;;;;5064331;28;19921;-73
2023/11/29 10:12:42;;;;;;;1.38;0.47;;;12.30;35.30;;;;;;5031544;28;20052;-73
2023/11/29 10:15:09;;;;;;;1.90;1.10;;;12.50;35.30;;;;;;5031535;28;20034;-71
2023/11/29 10:17:35;;;;;;;2.38;1.75;;;12.60;34.50;;;;;;5033164;28;20122;-71
2023/11/29 10:20:02;;;;;;;1.02;0.95;;;13.20;34.60;;;;;;5031509;28;20068;-71
2023/11/29 10:22:29;;;;;;;0.38;0.30;;;13.10;35.50;;;;;;5014162;28;20050;-74
2023/11/29 10:24:55;;;;;;;1.50;0.93;;;13.60;35.50;;;;;;5032481;28;20025;-74
2023/11/29 10:27:24;;;;;;;0.38;0.30;;;14.20;31.80;;;;;;5032824;28;20048;-71
2023/11/29 10:29:50;;;;;;;1.30;0.73;;;15.00;31.00;;;;;;5031425;28;20084;-71
2023/11/29 10:32:18;;;;;;;1.35;0.55;;;14.40;30.60;;;;;;5032343;28;20045;-71
2023/11/29 10:34:47;;;;;;;1.17;0.68;;;13.20;32.60;;;;;;5031218;28;20034;-74
2023/11/29 10:37:13;;;;;;;1.60;0.98;;;12.20;35.00;;;;;;5031451;28;20490;-73
2023/11/29 10:39:45;;;;;;;2.33;1.15;;;11.60;37.20;;;;;;5032551;28;20433;-71
2023/11/29 10:42:11;;;;;;;0.82;0.73;;;11.10;37.20;;;;;;5030634;28;20118;-71
2023/11/29 10:44:39;;;;;;;0.28;0.28;;;11.10;37.70;;;;;;5031053;28;20498;-74
2023/11/29 10:47:48;;;;;;;1.02;0.50;;;11.40;37.40;;;;;;5031255;28;20223;-74
2023/11/29 10:50:16;;;;;;;1.73;0.98;;;12.40;36.30;;;;;;5030582;28;20034;-71
2023/11/29 10:52:42;;;;;;;1.17;0.43;;;13.10;33.50;;;;;;5032681;28;20034;-71
2023/11/29 10:55:09;;;;;;;0.80;0.63;;;13.50;30.80;;;;;;5032138;28;20479;-71
2023/11/29 10:57:58;;;;;;;0.93;0.47;;;13.00;31.90;;;;;;5032618;28;20384;-73
2023/11/29 11:00:28;;;;;;;0.30;0.30;;;12.70;32.90;;;;;;5030564;28;20516;-73
2023/11/29 11:02:55;;;;;;;0.90;0.50;;;12.40;33.90;;;;;;5032713;28;20037;-71
2023/11/29 11:05:39;;;;;;;1.08;0.70;;;12.80;33.60;;;;;;5014412;28;20117;-73
2023/11/29 11:08:06;;;;;;;1.17;0.80;;;13.20;34.50;;;;;;5031098;28;20096;-73
2023/11/29 11:10:32;;;;;;;0.77;0.50;;;14.20;33.20;;;;;;5031483;28;20041;-74
2023/11/29 11:12:58;;;;;;;1.48;0.85;;;14.70;31.90;;;;;;5032377;28;20065;-71
2023/11/29 11:15:27;;;;;;;3.35;1.55;;;15.70;30.30;;;;;;5032408;28;20042;-73
2023/11/29 11:18:31;;;;;;;2.95;1.30;;;16.00;28.30;;;;;;5030972;28;20030;-74
2023/11/29 11:20:59;;;;;;;0.85;0.60;;;16.00;27.90;;;;;;5029743;28;20076;-74
2023/11/29 11:23:28;;;;;;;0.90;0.73;;;15.20;29.40;;;;;;5030831;28;20033;-73
2023/11/29 11:25:57;;;;;;;1.75;1.35;;;14.30;30.50;;;;;;5030655;28;20283;-71
2023/11/29 11:28:43;;;;;;;2.33;1.15;;;14.00;31.00;;;;;;5031928;28;20025;-74
2023/11/29 11:31:12;;;;;;;1.98;1.00;;;14.30;30.50;;;;;;5031367;28;20452;-71
2023/11/29 11:33:57;;;;;;;1.67;1.00;;;13.80;30.10;;;;;;5015913;28;20382;-71
2023/11/29 11:36:24;;;;;;;1.35;0.63;;;13.40;31.30;;;;;;5035834;28;20069;-73
2023/11/29 11:38:51;;;;;;;0.45;0.40;;;12.80;33.00;;;;;;5035659;28;20033;-73
2023/11/29 11:41:17;;;;;;;;;;;12.50;32.70;;;;;;5034232;28;20088;-71
2023/11/29 11:43:43;;;;;;;0.93;0.30;;;12.50;32.80;;;;;;5035304;28;19913;-73
2023/11/29 11:46:10;;;;;;;1.15;0.73;;;13.10;31.90;;;;;;5033900;28;20041;-71
2023/11/29 11:48:37;;;;;;;0.52;0.32;;;13.80;29.80;;;;;;5016812;28;20026;-74
2023/11/29 11:51:04;;;;;;;0.47;0.47;;;14.30;28.30;;;;;;5013940;28;20049;-71
2023/11/29 11:53:50;;;;;;;1.10;0.85;;;14.80;27.20;;;;;;5014296;28;20036;-74
2023/11/29 11:56:35;;;;;;;0.43;0.30;;;14.30;27.50;;;;;;5020939;28;20053;-74
2023/11/29 11:59:01;;;;;;;1.45;0.95;;;13.60;28.50;;;;;;5015507;28;20041;-71
2023/11/29 12:01:29;;;;;;;0.28;0.20;;;13.00;29.20;;;;;;5013881;28;20049;-73
2023/11/29 12:03:55;;;;;;;0.52;0.40;;;12.60;29.40;;;;;;5018807;28;20389;-73
2023/11/29 12:06:21;;;;;;;0.28;0.20;;;12.40;31.30;;;;;;5022113;28;20046;-72
2023/11/29 12:08:47;;;;;;;;;;;12.50;29.80;;;;;;5014323;28;20128;-70
2023/11/29 12:11:13;;;;;;;0.20;0.20;;;12.60;30.00;;;;;;5029853;28;20404;-74
2023/11/29 12:13:40;;;;;;;5.38;1.58;;;12.30;30.00;;;;;;4997375;28;20026;-73
2023/11/29 12:16:26;;;;;;;2.55;1.48;;;12.10;30.30;;;;;;5015281;28;20042;-71
2023/11/29 12:18:52;;;;;;;2.35;0.98;;;12.40;30.20;;;;;;5024170;28;20044;-71
2023/11/29 12:21:18;;;;;;;1.05;0.80;;;12.50;29.90;;;;;;5030134;28;20053;-71
2023/11/29 12:23:46;;;;;;;1.05;0.50;;;12.70;31.20;;;;;;5033384;28;20057;-71
2023/11/29 12:26:32;;;;;;;0.75;0.35;;;12.80;30.50;;;;;;5034770;28;20438;-71
2023/11/29 12:29:19;;;;;;;1.42;0.77;;;12.60;30.00;;;;;;5033399;28;20030;-73
2023/11/29 12:31:45;;;;;;;0.30;0.30;;;12.50;31.10;;;;;;5032884;28;20053;-71
2023/11/29 12:34:11;;;;;;;0.40;0.17;;;13.00;30.00;;;;;;5034537;28;20034;-73
2023/11/29 12:36:37;;;;;;;0.80;0.57;;;13.10;29.60;;;;;;5033564;28;20038;-74
2023/11/29 12:39:03;;;;;;;5.55;4.10;;;13.00;29.00;;;;;;5033316;28;20046;-74
2023/11/29 12:41:29;;;;;;;1.90;1.23;;;13.10;29.80;;;;;;5032529;28;20368;-74
2023/11/29 12:43:56;;;;;;;3.72;0.95;;;13.10;29.00;;;;;;5033142;28;20041;-71
2023/11/29 12:46:21;;;;;;;;;;;13.40;29.20;;;;;;5034400;28;20041;-74
2023/11/29 12:48:48;;;;;;;1.58;0.88;;;13.40;29.00;;;;;;5066543;28;19923;-71
2023/11/29 12:51:14;;;;;;;;;;;13.20;30.00;;;;;;5033097;28;20260;-71
2023/11/29 12:53:40;;;;;;;0.75;0.73;;;13.10;30.20;;;;;;5032012;28;19975;-71
2023/11/29 12:56:07;;;;;;;1.00;0.68;;;13.10;29.80;;;;;;5034367;28;20045;-71
2023/11/29 12:58:34;;;;;;;0.50;0.40;;;13.80;28.90;;;;;;5034029;28;20120;-71
2023/11/29 13:01:00;;;;;;;;;;;14.80;27.70;;;;;;5032923;28;20045;-73
2023/11/29 13:03:26;;;;;;;0.98;0.80;;;15.30;26.90;;;;;;5034206;28;20289;-71